createdAt,value
2023-11-15T00:01:19.391Z,68.57
2023-11-15T00:03:45.632Z,70.42
2023-11-15T00:06:12.077Z,69.01
2023-11-15T00:08:38.341Z,69.03
2023-11-15T00:11:04.537Z,69.24
2023-11-15T00:13:30.723Z,69.21
2023-11-15T00:15:56.931Z,69.07
2023-11-15T00:18:23.155Z,68.98
2023-11-15T00:20:49.349Z,68.55
2023-11-15T00:23:15.552Z,68.83
2023-11-15T00:25:41.723Z,68.23
2023-11-15T00:28:07.874Z,69.12
2023-11-15T00:30:34.053Z,69.15
2023-11-15T00:33:00.347Z,69.40
2023-11-15T00:35:26.909Z,69.55
2023-11-15T00:37:53.173Z,69.60
2023-11-15T00:40:19.354Z,69.40
2023-11-15T00:42:45.536Z,69.00
2023-11-15T00:45:11.683Z,69.47
2023-11-15T00:47:37.942Z,69.93
2023-11-15T00:50:04.153Z,70.40
2023-11-15T00:52:30.332Z,69.12
2023-11-15T00:54:56.533Z,69.50
2023-11-15T00:57:22.753Z,69.46
2023-11-15T00:59:48.939Z,69.42
2023-11-15T01:02:15.207Z,69.45
2023-11-15T01:04:41.408Z,70.25
2023-11-15T01:07:07.582Z,70.43
2023-11-15T01:09:33.746Z,70.41
2023-11-15T01:11:59.912Z,70.54
2023-11-15T01:14:26.114Z,69.64
2023-11-15T01:16:52.301Z,71.47
2023-11-15T01:19:18.455Z,73.19
2023-11-15T01:21:44.616Z,73.50
2023-11-15T01:24:10.764Z,72.60
2023-11-15T01:26:36.968Z,72.49
2023-11-15T01:29:03.143Z,71.69
2023-11-15T01:31:29.332Z,71.85
2023-11-15T01:33:55.534Z,72.94
2023-11-15T01:36:21.707Z,73.27
2023-11-15T01:38:47.875Z,72.94
2023-11-15T01:41:14.042Z,71.98
2023-11-15T01:43:40.224Z,71.97
2023-11-15T01:46:06.500Z,71.00
2023-11-15T01:48:32.702Z,70.30
2023-11-15T01:50:58.883Z,70.21
2023-11-15T01:53:25.121Z,70.65
2023-11-15T01:55:51.312Z,70.46
2023-11-15T02:01:01.152Z,70.12
2023-11-15T02:03:27.352Z,70.73
2023-11-15T02:05:53.566Z,71.88
2023-11-15T02:08:19.818Z,71.77
2023-11-15T02:10:45.975Z,70.72
2023-11-15T02:13:12.126Z,70.10
2023-11-15T02:15:38.268Z,70.56
2023-11-15T02:18:04.480Z,70.45
2023-11-15T02:20:30.708Z,71.91
2023-11-15T02:22:56.860Z,72.18
2023-11-15T02:25:23.007Z,72.45
2023-11-15T02:27:49.133Z,71.57
2023-11-15T02:30:15.275Z,70.55
2023-11-15T02:32:41.500Z,70.92
2023-11-15T02:35:07.728Z,70.63
2023-11-15T02:37:33.871Z,70.47
2023-11-15T02:40:00.008Z,70.64
2023-11-15T02:42:26.156Z,71.59
2023-11-15T02:44:52.350Z,71.05
2023-11-15T02:47:18.552Z,70.62
2023-11-15T02:49:44.702Z,72.19
2023-11-15T02:52:10.840Z,72.10
2023-11-15T02:54:36.967Z,70.85
2023-11-15T02:57:03.120Z,70.67
2023-11-15T02:59:29.293Z,71.01
2023-11-15T03:01:55.486Z,71.01
2023-11-15T03:04:21.741Z,71.09
2023-11-15T03:06:47.906Z,71.34
2023-11-15T03:09:14.052Z,70.84
2023-11-15T03:11:40.210Z,70.53
2023-11-15T03:14:06.378Z,71.03
2023-11-15T03:16:32.612Z,71.42
2023-11-15T03:18:58.794Z,70.69
2023-11-15T03:21:24.952Z,71.36
2023-11-15T03:23:51.161Z,71.47
2023-11-15T03:26:17.324Z,71.54
2023-11-15T03:28:43.484Z,71.18
2023-11-15T03:31:09.649Z,71.83
2023-11-15T03:33:35.913Z,72.44
2023-11-15T03:36:02.169Z,71.73
2023-11-15T03:38:28.402Z,70.98
2023-11-15T03:40:54.600Z,71.37
2023-11-15T03:43:20.767Z,70.70
2023-11-15T03:45:46.942Z,70.05
2023-11-15T03:48:13.217Z,69.68
2023-11-15T03:50:39.391Z,71.92
2023-11-15T03:53:05.603Z,72.06
2023-11-15T03:55:37.686Z,71.40
2023-11-15T03:58:03.875Z,71.24
2023-11-15T04:00:30.025Z,70.33
2023-11-15T04:02:56.390Z,70.64
2023-11-15T04:05:22.693Z,71.59
2023-11-15T04:07:48.883Z,71.75
2023-11-15T04:10:15.037Z,71.66
2023-11-15T04:12:41.201Z,71.18
2023-11-15T04:15:07.365Z,72.19
2023-11-15T04:17:33.608Z,71.61
2023-11-15T04:19:59.819Z,71.69
2023-11-15T04:22:25.969Z,71.42
2023-11-15T04:24:52.150Z,71.26
2023-11-15T04:27:18.352Z,70.91
2023-11-15T04:29:44.541Z,71.01
2023-11-15T04:32:10.703Z,70.26
2023-11-15T04:34:36.888Z,70.70
2023-11-15T04:37:03.064Z,70.84
2023-11-15T04:39:29.245Z,70.47
2023-11-15T04:41:55.449Z,71.36
2023-11-15T04:44:21.672Z,71.34
2023-11-15T04:46:47.862Z,71.08
2023-11-15T04:49:14.036Z,71.10
2023-11-15T04:51:40.200Z,70.78
2023-11-15T04:54:06.372Z,71.87
2023-11-15T04:56:32.556Z,71.43
2023-11-15T04:58:58.738Z,70.83
2023-11-15T05:01:24.952Z,71.11
2023-11-15T05:03:51.322Z,70.77
2023-11-15T05:06:17.580Z,71.59
2023-11-15T05:08:43.818Z,71.86
2023-11-15T05:11:10.010Z,71.39
2023-11-15T05:13:36.173Z,71.94
2023-11-15T05:16:02.355Z,71.86
2023-11-15T05:18:28.597Z,71.44
2023-11-15T05:20:54.892Z,71.63
2023-11-15T05:23:21.080Z,71.23
2023-11-15T05:25:47.222Z,70.45
2023-11-15T05:28:13.421Z,69.86
2023-11-15T05:30:39.578Z,70.78
2023-11-15T05:33:05.788Z,71.01
2023-11-15T05:35:31.995Z,70.42
2023-11-15T05:37:58.180Z,69.27
2023-11-15T05:40:24.392Z,69.64
2023-11-15T05:42:50.564Z,70.38
2023-11-15T05:45:16.763Z,72.87
2023-11-15T05:47:43.002Z,71.26
2023-11-15T05:50:09.188Z,72.00
2023-11-15T05:52:35.352Z,71.96
2023-11-15T05:55:01.527Z,70.31
2023-11-15T05:57:27.685Z,71.49
2023-11-15T05:59:53.856Z,71.39
2023-11-15T06:02:20.037Z,70.68
2023-11-15T06:04:46.192Z,71.05
2023-11-15T06:07:12.337Z,71.60
2023-11-15T06:09:38.491Z,72.18
2023-11-15T06:12:04.675Z,71.98
2023-11-15T06:14:30.834Z,71.50
2023-11-15T06:16:57.041Z,72.02
2023-11-15T06:19:23.278Z,71.73
2023-11-15T06:21:49.456Z,72.24
2023-11-15T06:24:15.648Z,72.37
2023-11-15T06:26:41.837Z,72.08
2023-11-15T06:29:08.070Z,72.05
2023-11-15T06:31:34.219Z,72.15
2023-11-15T06:34:00.513Z,73.09
2023-11-15T06:36:26.765Z,72.96
2023-11-15T06:38:52.920Z,72.08
2023-11-15T06:41:19.108Z,71.06
2023-11-15T06:43:45.276Z,71.11
2023-11-15T06:46:11.456Z,70.70
2023-11-15T06:48:37.679Z,70.75
2023-11-15T06:51:04.005Z,70.96
2023-11-15T06:53:30.222Z,70.74
2023-11-15T06:55:56.391Z,70.72
2023-11-15T06:58:22.548Z,70.19
2023-11-15T07:00:48.730Z,71.08
2023-11-15T07:03:15.058Z,70.31
2023-11-15T07:05:41.300Z,70.08
2023-11-15T07:08:07.532Z,70.54
2023-11-15T07:10:33.686Z,71.00
2023-11-15T07:12:59.853Z,70.56
2023-11-15T07:15:26.034Z,71.44
2023-11-15T07:17:52.284Z,72.15
2023-11-15T07:20:18.478Z,70.98
2023-11-15T07:22:44.644Z,70.43
2023-11-15T07:25:10.805Z,70.00
2023-11-15T07:27:36.969Z,70.00
2023-11-15T07:30:03.225Z,69.10
2023-11-15T07:32:29.455Z,69.00
2023-11-15T07:34:55.629Z,69.10
2023-11-15T07:37:21.797Z,68.86
2023-11-15T07:39:47.981Z,68.36
2023-11-15T07:42:14.193Z,69.15
2023-11-15T07:44:40.398Z,69.38
2023-11-15T07:47:06.584Z,68.83
2023-11-15T07:49:32.745Z,68.77
2023-11-15T07:51:58.896Z,68.71
2023-11-15T07:54:25.140Z,69.66
2023-11-15T07:56:51.461Z,68.94
2023-11-15T07:59:17.653Z,68.45
2023-11-15T08:01:47.214Z,67.78
2023-11-15T08:04:14.551Z,67.34
2023-11-15T08:06:40.762Z,67.41
2023-11-15T08:09:06.992Z,66.95
2023-11-15T08:11:33.159Z,66.99
2023-11-15T08:13:59.339Z,66.82
2023-11-15T08:16:25.511Z,66.89
2023-11-15T08:18:51.824Z,66.87
2023-11-15T08:21:18.062Z,66.23
2023-11-15T08:23:44.237Z,67.73
2023-11-15T08:26:10.406Z,68.52
2023-11-15T08:28:36.559Z,67.64
2023-11-15T08:31:02.733Z,70.39
2023-11-15T08:33:29.124Z,70.18
2023-11-15T08:35:55.416Z,69.16
2023-11-15T08:38:21.583Z,68.18
2023-11-15T08:40:47.758Z,67.51
2023-11-15T08:43:13.925Z,66.19
2023-11-15T08:45:40.100Z,65.59
2023-11-15T08:48:06.408Z,64.08
2023-11-15T08:50:32.655Z,64.62
2023-11-15T08:52:58.843Z,63.35
2023-11-15T08:55:25.006Z,63.86
2023-11-15T08:57:51.161Z,64.10
2023-11-15T09:00:17.542Z,65.23
2023-11-15T09:02:43.878Z,65.93
2023-11-15T09:05:10.133Z,65.40
2023-11-15T09:07:36.297Z,65.90
2023-11-15T09:10:02.449Z,66.44
2023-11-15T09:12:28.596Z,67.47
2023-11-15T09:14:54.815Z,67.11
2023-11-15T09:17:21.008Z,66.32
2023-11-15T09:19:47.181Z,66.03
2023-11-15T09:22:13.338Z,66.47
2023-11-15T09:24:39.514Z,66.96
2023-11-15T09:27:05.698Z,67.16
2023-11-15T09:29:31.877Z,67.34
2023-11-15T09:31:58.038Z,67.30
2023-11-15T09:34:24.303Z,67.37
2023-11-15T09:36:50.532Z,66.93
2023-11-15T09:39:16.723Z,67.05
2023-11-15T09:41:42.945Z,67.01
2023-11-15T09:44:09.110Z,67.09
2023-11-15T09:46:35.300Z,67.17
2023-11-15T09:49:07.405Z,67.29
2023-11-15T09:51:34.287Z,67.90
2023-11-15T09:54:08.546Z,67.20
2023-11-15T09:56:42.164Z,67.21
2023-11-15T10:01:40.483Z,66.92
2023-11-15T10:04:06.661Z,67.08
2023-11-15T10:06:32.814Z,68.22
2023-11-15T10:08:58.991Z,67.82
2023-11-15T10:11:25.209Z,68.07
2023-11-15T10:13:51.369Z,67.51
2023-11-15T10:16:17.617Z,67.74
2023-11-15T10:18:43.794Z,68.38
2023-11-15T10:21:10.061Z,68.60
2023-11-15T10:23:38.396Z,69.48
2023-11-15T10:26:05.912Z,68.06
2023-11-15T10:28:32.087Z,67.87
2023-11-15T10:30:58.249Z,68.32
2023-11-15T10:33:24.779Z,68.68
2023-11-15T10:35:52.382Z,68.59
2023-11-15T10:38:19.824Z,68.52
2023-11-15T10:40:45.983Z,68.84
2023-11-15T10:43:12.149Z,69.19
2023-11-15T10:45:38.339Z,70.29
2023-11-15T10:48:04.624Z,69.33
2023-11-15T10:50:30.889Z,67.88
2023-11-15T10:52:57.047Z,67.29
2023-11-15T10:55:23.276Z,66.74
2023-11-15T10:57:49.456Z,66.90
2023-11-15T11:00:15.627Z,67.05
2023-11-15T11:02:42.074Z,67.30
2023-11-15T11:05:08.391Z,66.93
2023-11-15T11:07:34.583Z,67.04
2023-11-15T11:10:00.764Z,67.36
2023-11-15T11:12:27.032Z,68.18
2023-11-15T11:14:53.216Z,67.94
2023-11-15T11:17:19.381Z,68.81
2023-11-15T11:19:45.585Z,69.70
2023-11-15T11:22:11.752Z,69.05
2023-11-15T11:24:37.973Z,68.48
2023-11-15T11:27:04.263Z,68.07
2023-11-15T11:29:30.475Z,68.49
2023-11-15T11:31:56.679Z,68.17
2023-11-15T11:34:22.853Z,67.79
2023-11-15T11:36:49.016Z,68.11
2023-11-15T11:39:15.258Z,66.75
2023-11-15T11:41:41.465Z,67.02
2023-11-15T11:44:07.633Z,66.95
2023-11-15T11:46:33.880Z,65.69
2023-11-15T11:49:00.075Z,65.45
2023-11-15T11:51:26.246Z,65.00
2023-11-15T11:53:52.432Z,65.13
2023-11-15T11:56:18.612Z,65.82
2023-11-15T11:58:45.017Z,67.82
2023-11-15T12:01:11.408Z,67.08
2023-11-15T12:03:37.744Z,67.72
2023-11-15T12:06:03.996Z,66.25
2023-11-15T12:08:30.155Z,64.31
2023-11-15T12:10:56.317Z,63.70
2023-11-15T12:13:22.483Z,63.00
2023-11-15T12:15:48.659Z,62.95
2023-11-15T12:18:14.927Z,63.17
2023-11-15T12:20:41.451Z,63.80
2023-11-15T12:23:07.774Z,63.55
2023-11-15T12:25:33.934Z,63.12
2023-11-15T12:28:00.096Z,64.15
2023-11-15T12:30:26.304Z,65.32
2023-11-15T12:32:52.519Z,65.59
2023-11-15T12:35:18.710Z,65.30
2023-11-15T12:37:44.880Z,64.25
2023-11-15T12:40:11.052Z,60.86
2023-11-15T12:42:37.228Z,64.25
2023-11-15T12:45:03.455Z,65.75
2023-11-15T12:47:29.671Z,66.28
2023-11-15T12:49:55.833Z,64.62
2023-11-15T12:52:22.003Z,66.56
2023-11-15T12:54:48.187Z,67.00
2023-11-15T12:57:14.441Z,67.48
2023-11-15T12:59:40.652Z,67.95
2023-11-15T13:02:07.252Z,67.25
2023-11-15T13:04:33.695Z,65.81
2023-11-15T13:06:59.891Z,67.10
2023-11-15T13:09:26.117Z,65.83
2023-11-15T13:11:52.376Z,67.51
2023-11-15T13:14:18.552Z,66.80
2023-11-15T13:16:44.773Z,64.97
2023-11-15T13:19:10.953Z,65.12
2023-11-15T13:21:37.106Z,66.35
2023-11-15T13:24:03.367Z,66.64
2023-11-15T13:26:29.550Z,66.58
2023-11-15T13:28:55.729Z,66.84
2023-11-15T13:31:21.907Z,68.54
2023-11-15T13:33:49.015Z,66.38
2023-11-15T13:36:15.901Z,66.67
2023-11-15T13:38:42.162Z,66.53
2023-11-15T13:41:08.334Z,67.17
2023-11-15T13:43:34.481Z,66.15
2023-11-15T13:46:00.640Z,65.52
2023-11-15T13:48:26.865Z,65.74
2023-11-15T13:50:53.142Z,66.73
2023-11-15T13:53:19.335Z,66.46
2023-11-15T13:55:45.520Z,66.11
2023-11-15T13:58:11.684Z,66.67
2023-11-15T14:00:37.836Z,66.44
2023-11-15T14:03:04.092Z,65.59
2023-11-15T14:05:30.355Z,66.03
2023-11-15T14:07:56.521Z,66.09
2023-11-15T14:10:22.673Z,67.14
2023-11-15T14:12:48.873Z,67.37
2023-11-15T14:15:15.161Z,67.85
2023-11-15T14:17:41.474Z,67.77
2023-11-15T14:20:07.734Z,68.60
2023-11-15T14:22:33.945Z,67.54
2023-11-15T14:25:00.165Z,67.12
2023-11-15T14:27:26.382Z,66.44
2023-11-15T14:29:52.574Z,68.24
2023-11-15T14:32:18.745Z,68.50
2023-11-15T14:34:44.894Z,68.09
2023-11-15T14:37:11.069Z,67.48
2023-11-15T14:39:37.253Z,68.43
2023-11-15T14:42:04.551Z,67.91
2023-11-15T14:44:32.558Z,67.07
2023-11-15T14:46:58.859Z,67.22
2023-11-15T14:49:25.045Z,68.07
2023-11-15T14:51:51.221Z,68.87
2023-11-15T14:54:17.422Z,69.11
2023-11-15T14:56:43.632Z,70.85
2023-11-15T14:59:09.808Z,70.86
2023-11-15T15:01:36.039Z,69.17
2023-11-15T15:04:02.390Z,69.47
2023-11-15T15:06:28.768Z,70.85
2023-11-15T15:08:54.954Z,70.35
2023-11-15T15:11:21.140Z,70.04
2023-11-15T15:13:47.300Z,70.70
2023-11-15T15:16:13.542Z,70.71
2023-11-15T15:18:39.961Z,71.46
2023-11-15T15:21:06.308Z,71.49
2023-11-15T15:23:32.475Z,70.59
2023-11-15T15:25:58.839Z,69.67
2023-11-15T15:28:25.093Z,68.91
2023-11-15T15:30:51.278Z,70.35
2023-11-15T15:33:17.509Z,69.99
2023-11-15T15:35:43.740Z,70.12
2023-11-15T15:38:11.755Z,69.77
2023-11-15T15:40:38.496Z,70.43
2023-11-15T15:43:04.672Z,70.25
2023-11-15T15:45:30.862Z,69.66
2023-11-15T15:47:57.185Z,68.67
2023-11-15T15:50:23.460Z,69.77
2023-11-15T15:52:49.619Z,69.13
2023-11-15T15:55:15.785Z,70.66
2023-11-15T15:57:41.953Z,70.60
2023-11-15T16:00:08.192Z,70.62
2023-11-15T16:02:34.538Z,72.09
2023-11-15T16:05:00.705Z,72.94
2023-11-15T16:07:26.851Z,72.23
2023-11-15T16:09:53.048Z,72.07
2023-11-15T16:12:19.274Z,72.11
2023-11-15T16:14:45.479Z,71.46
2023-11-15T16:17:11.704Z,71.54
2023-11-15T16:19:37.886Z,72.76
2023-11-15T16:22:04.064Z,72.45
2023-11-15T16:24:30.228Z,71.68
2023-11-15T16:26:56.388Z,71.48
2023-11-15T16:29:22.602Z,71.41
2023-11-15T16:31:48.745Z,72.15
2023-11-15T16:34:14.895Z,73.24
2023-11-15T16:36:41.046Z,73.79
2023-11-15T16:39:07.234Z,73.80
2023-11-15T16:41:33.453Z,74.28
2023-11-15T16:43:59.682Z,73.21
2023-11-15T16:46:25.910Z,72.32
2023-11-15T16:48:52.183Z,71.08
2023-11-15T16:51:18.419Z,72.30
2023-11-15T16:53:44.599Z,72.38
2023-11-15T16:56:10.750Z,71.74
2023-11-15T16:58:36.938Z,71.63
2023-11-15T17:01:03.110Z,71.31
2023-11-15T17:03:29.314Z,72.38
2023-11-15T17:05:55.514Z,71.91
2023-11-15T17:08:21.704Z,72.82
2023-11-15T17:10:47.850Z,72.33
2023-11-15T17:13:14.009Z,70.63
2023-11-15T17:15:40.165Z,69.88
2023-11-15T17:18:06.438Z,70.76
2023-11-15T17:20:32.658Z,71.98
2023-11-15T17:22:58.836Z,71.77
2023-11-15T17:25:25.000Z,72.24
2023-11-15T17:27:53.041Z,72.89
2023-11-15T17:30:19.981Z,72.85
2023-11-15T17:32:46.237Z,72.23
2023-11-15T17:35:12.411Z,72.27
2023-11-15T17:37:38.586Z,71.70
2023-11-15T17:40:04.754Z,69.01
2023-11-15T17:42:30.965Z,65.92
2023-11-15T17:44:57.497Z,69.63
2023-11-15T17:47:24.961Z,72.06
2023-11-15T17:49:51.335Z,73.13
2023-11-15T17:52:17.503Z,69.91
2023-11-15T17:54:43.676Z,68.85
2023-11-15T17:57:09.860Z,69.56
2023-11-15T17:59:36.057Z,70.98
2023-11-15T18:02:02.231Z,68.70
2023-11-15T18:04:28.460Z,70.20
2023-11-15T18:06:54.648Z,69.48
2023-11-15T18:09:20.829Z,71.99
2023-11-15T18:11:47.005Z,72.73
2023-11-15T18:14:13.158Z,71.94
2023-11-15T18:16:39.377Z,69.89
2023-11-15T18:19:06.126Z,67.18
2023-11-15T18:21:32.652Z,65.24
2023-11-15T18:23:58.876Z,69.46
2023-11-15T18:26:25.042Z,71.07
2023-11-15T18:28:51.235Z,70.76
2023-11-15T18:31:17.448Z,68.69
2023-11-15T18:33:43.828Z,69.67
2023-11-15T18:36:10.637Z,69.72
2023-11-15T18:38:36.919Z,70.97
2023-11-15T18:41:03.067Z,70.27
2023-11-15T18:43:29.230Z,66.21
2023-11-15T18:45:55.433Z,67.31
2023-11-15T18:48:21.695Z,67.22
2023-11-15T18:50:47.876Z,68.82
2023-11-15T18:53:14.057Z,66.95
2023-11-15T18:55:40.214Z,64.78
2023-11-15T18:58:06.387Z,66.01
2023-11-15T19:00:32.584Z,70.64
2023-11-15T19:03:00.139Z,70.08
2023-11-15T19:05:26.463Z,68.31
2023-11-15T19:07:52.608Z,66.39
2023-11-15T19:10:18.778Z,66.07
2023-11-15T19:12:44.940Z,66.05
2023-11-15T19:15:11.099Z,66.26
2023-11-15T19:17:37.306Z,66.00
2023-11-15T19:20:03.469Z,67.73
2023-11-15T19:22:29.618Z,70.21
2023-11-15T19:24:55.773Z,68.99
2023-11-15T19:27:21.972Z,69.36
2023-11-15T19:29:48.145Z,68.80
2023-11-15T19:32:14.293Z,67.88
2023-11-15T19:34:40.442Z,67.26
2023-11-15T19:37:06.595Z,65.44
2023-11-15T19:39:32.815Z,65.02
2023-11-15T19:41:59.057Z,68.27
2023-11-15T19:44:25.231Z,68.61
2023-11-15T19:46:51.399Z,66.06
2023-11-15T19:49:17.553Z,66.44
2023-11-15T19:51:43.749Z,66.41
2023-11-15T19:54:10.039Z,66.97
2023-11-15T19:56:36.273Z,67.06
2023-11-15T19:59:02.457Z,68.18
2023-11-15T20:01:28.673Z,68.33
2023-11-15T20:03:55.021Z,68.05
2023-11-15T20:06:21.331Z,66.33
2023-11-15T20:08:47.540Z,66.29
2023-11-15T20:11:13.684Z,65.17
2023-11-15T20:13:39.834Z,64.80
2023-11-15T20:16:05.991Z,63.02
2023-11-15T20:18:32.290Z,63.72
2023-11-15T20:20:58.512Z,63.99
2023-11-15T20:23:24.658Z,63.55
2023-11-15T20:25:50.813Z,63.65
2023-11-15T20:28:16.973Z,65.02
2023-11-15T20:30:43.137Z,64.32
2023-11-15T20:33:09.383Z,65.72
2023-11-15T20:35:35.577Z,66.02
2023-11-15T20:38:01.737Z,66.09
2023-11-15T20:40:27.893Z,65.66
2023-11-15T20:42:54.084Z,65.75
2023-11-15T20:45:20.319Z,62.46
2023-11-15T20:47:46.735Z,65.41
2023-11-15T20:50:13.173Z,67.14
2023-11-15T20:52:39.370Z,67.01
2023-11-15T20:55:05.542Z,67.98
2023-11-15T20:57:31.712Z,68.17
2023-11-15T20:59:59.899Z,68.23
2023-11-15T21:02:26.577Z,68.52
2023-11-15T21:04:52.893Z,67.77
2023-11-15T21:07:19.109Z,66.81
2023-11-15T21:09:45.260Z,65.39
2023-11-15T21:12:11.450Z,62.11
2023-11-15T21:14:37.624Z,63.63
2023-11-15T21:17:03.810Z,64.98
2023-11-15T21:19:29.992Z,64.06
2023-11-15T21:21:56.234Z,63.60
2023-11-15T21:24:22.430Z,63.92
2023-11-15T21:26:48.594Z,64.46
2023-11-15T21:29:14.755Z,63.50
2023-11-15T21:31:41.449Z,63.21
2023-11-15T21:34:07.816Z,64.00
2023-11-15T21:36:34.029Z,64.60
2023-11-15T21:39:00.226Z,65.08
2023-11-15T21:41:26.425Z,66.11
2023-11-15T21:43:52.570Z,66.49
2023-11-15T21:46:18.805Z,66.51
2023-11-15T21:48:45.018Z,64.22
2023-11-15T21:51:11.218Z,64.70
2023-11-15T21:53:37.371Z,65.05
2023-11-15T21:56:03.617Z,64.73
2023-11-15T21:58:29.869Z,64.43
2023-11-15T22:00:56.020Z,64.29
2023-11-15T22:03:22.249Z,65.81
2023-11-15T22:05:48.428Z,66.09
2023-11-15T22:08:14.590Z,65.40
2023-11-15T22:10:40.757Z,65.17
2023-11-15T22:13:06.935Z,64.51
2023-11-15T22:15:33.096Z,64.87
2023-11-15T22:17:59.365Z,65.20
2023-11-15T22:20:25.598Z,64.89
2023-11-15T22:22:51.769Z,64.46
2023-11-15T22:25:17.955Z,65.91
2023-11-15T22:27:44.127Z,67.04
2023-11-15T22:30:10.318Z,67.83
2023-11-15T22:32:36.542Z,66.75
2023-11-15T22:35:02.726Z,65.48
2023-11-15T22:37:28.887Z,66.12
2023-11-15T22:39:55.040Z,66.22
2023-11-15T22:42:21.276Z,65.22
2023-11-15T22:44:47.464Z,66.19
2023-11-15T22:47:13.648Z,65.99
2023-11-15T22:49:39.850Z,66.56
2023-11-15T22:52:06.012Z,67.68
2023-11-15T22:54:32.247Z,66.17
2023-11-15T22:56:58.493Z,65.23
2023-11-15T22:59:24.707Z,65.96
2023-11-15T23:01:50.880Z,65.84
2023-11-15T23:04:17.245Z,65.06
2023-11-15T23:06:43.536Z,64.55
2023-11-15T23:09:09.734Z,65.19
2023-11-15T23:11:35.911Z,64.56
2023-11-15T23:14:02.120Z,63.67
2023-11-15T23:16:28.333Z,63.51
2023-11-15T23:18:54.596Z,62.47
2023-11-15T23:21:20.827Z,61.05
2023-11-15T23:23:47.036Z,59.81
2023-11-15T23:26:13.224Z,61.05
2023-11-15T23:28:39.411Z,63.38
2023-11-15T23:31:05.595Z,62.58
2023-11-15T23:33:31.788Z,61.38
2023-11-15T23:35:58.048Z,63.16
2023-11-15T23:38:24.254Z,64.04
2023-11-15T23:40:50.419Z,64.06
2023-11-15T23:43:16.633Z,63.63
2023-11-15T23:45:42.821Z,64.18
2023-11-15T23:48:09.101Z,64.01
2023-11-15T23:50:35.348Z,64.87
2023-11-15T23:53:01.536Z,65.09
2023-11-15T23:55:27.720Z,64.79
2023-11-15T23:57:53.889Z,63.87
